sensor_id;sensor_type;location;lat;lon;timestamp;temperature;humidity
13211;DHT22;6670;51.53087800;7.23266500;2023-09-08T00:01:18;21.50;1.00
13211;DHT22;6670;51.53087800;7.23266500;2023-09-08T00:03:45;21.50;1.00
13211;DHT22;6670;51.53087800;7.23266500;2023-09-08T00:06:13;21.60;1.00
13211;DHT22;6670;51.53087800;7.23266500;2023-09-08T00:08:40;21.60;1.00
13211;DHT22;6670;51.53087800;7.23266500;2023-09-08T00:11:09;21.50;1.00
13211;DHT22;6670;51.53087800;7.23266500;2023-09-08T00:13:36;21.30;1.00
13211;DHT22;6670;51.53087800;7.23266500;2023-09-08T00:16:05;21.50;1.00
13211;DHT22;6670;51.53087800;7.23266500;2023-09-08T00:18:37;21.50;1.00
13211;DHT22;6670;51.53087800;7.23266500;2023-09-08T00:21:04;21.50;1.00
13211;DHT22;6670;51.53087800;7.23266500;2023-09-08T00:23:32;21.40;1.00
13211;DHT22;6670;51.53087800;7.23266500;2023-09-08T00:25:59;21.30;18.30
13211;DHT22;6670;51.53087800;7.23266500;2023-09-08T00:28:27;21.20;60.10
13211;DHT22;6670;51.53087800;7.23266500;2023-09-08T00:30:54;21.00;99.90
13211;DHT22;6670;51.53087800;7.23266500;2023-09-08T00:33:22;21.00;99.90
13211;DHT22;6670;51.53087800;7.23266500;2023-09-08T00:35:51;20.80;99.90
13211;DHT22;6670;51.53087800;7.23266500;2023-09-08T00:38:19;20.70;99.90
13211;DHT22;6670;51.53087800;7.23266500;2023-09-08T00:40:47;20.70;1.00
13211;DHT22;6670;51.53087800;7.23266500;2023-09-08T00:43:14;20.70;1.00
13211;DHT22;6670;51.53087800;7.23266500;2023-09-08T00:45:42;20.60;1.00
13211;DHT22;6670;51.53087800;7.23266500;2023-09-08T00:48:11;20.60;1.00
13211;DHT22;6670;51.53087800;7.23266500;2023-09-08T00:50:40;20.70;99.90
13211;DHT22;6670;51.53087800;7.23266500;2023-09-08T00:53:10;20.80;1.00
13211;DHT22;6670;51.53087800;7.23266500;2023-09-08T00:55:39;20.70;94.70
13211;DHT22;6670;51.53087800;7.23266500;2023-09-08T00:58:08;20.80;1.00
13211;DHT22;6670;51.53087800;7.23266500;2023-09-08T01:00:35;20.80;1.00
13211;DHT22;6670;51.53087800;7.23266500;2023-09-08T01:03:03;20.60;1.00
13211;DHT22;6670;51.53087800;7.23266500;2023-09-08T01:05:32;20.60;9.50
13211;DHT22;6670;51.53087800;7.23266500;2023-09-08T01:08:00;20.50;99.90
13211;DHT22;6670;51.53087800;7.23266500;2023-09-08T01:10:30;20.50;99.90
13211;DHT22;6670;51.53087800;7.23266500;2023-09-08T01:12:57;20.50;1.00
13211;DHT22;6670;51.53087800;7.23266500;2023-09-08T01:15:25;20.40;99.90
13211;DHT22;6670;51.53087800;7.23266500;2023-09-08T01:17:53;20.30;1.00
13211;DHT22;6670;51.53087800;7.23266500;2023-09-08T01:20:23;20.40;1.00
13211;DHT22;6670;51.53087800;7.23266500;2023-09-08T01:23:11;20.50;99.90
13211;DHT22;6670;51.53087800;7.23266500;2023-09-08T01:25:45;20.70;99.90
13211;DHT22;6670;51.53087800;7.23266500;2023-09-08T01:28:14;20.90;1.00
13211;DHT22;6670;51.53087800;7.23266500;2023-09-08T01:30:42;21.00;1.00
13211;DHT22;6670;51.53087800;7.23266500;2023-09-08T01:33:10;21.10;1.00
13211;DHT22;6670;51.53087800;7.23266500;2023-09-08T01:35:37;21.00;1.00
13211;DHT22;6670;51.53087800;7.23266500;2023-09-08T01:38:05;20.90;1.00
13211;DHT22;6670;51.53087800;7.23266500;2023-09-08T01:40:33;20.80;1.00
13211;DHT22;6670;51.53087800;7.23266500;2023-09-08T01:43:02;20.80;99.90
13211;DHT22;6670;51.53087800;7.23266500;2023-09-08T01:45:29;20.80;99.90
13211;DHT22;6670;51.53087800;7.23266500;2023-09-08T01:47:57;20.80;1.00
13211;DHT22;6670;51.53087800;7.23266500;2023-09-08T01:50:25;20.90;99.90
13211;DHT22;6670;51.53087800;7.23266500;2023-09-08T01:52:53;20.70;99.90
13211;DHT22;6670;51.53087800;7.23266500;2023-09-08T01:55:22;20.70;99.90
13211;DHT22;6670;51.53087800;7.23266500;2023-09-08T01:57:49;20.50;1.00
13211;DHT22;6670;51.53087800;7.23266500;2023-09-08T02:00:18;20.40;99.90
13211;DHT22;6670;51.53087800;7.23266500;2023-09-08T02:02:46;20.30;99.90
13211;DHT22;6670;51.53087800;7.23266500;2023-09-08T02:05:14;20.20;99.90
13211;DHT22;6670;51.53087800;7.23266500;2023-09-08T02:07:42;20.00;1.00
13211;DHT22;6670;51.53087800;7.23266500;2023-09-08T02:10:09;20.00;99.90
13211;DHT22;6670;51.53087800;7.23266500;2023-09-08T02:12:37;20.20;99.90
13211;DHT22;6670;51.53087800;7.23266500;2023-09-08T02:15:06;20.30;52.50
13211;DHT22;6670;51.53087800;7.23266500;2023-09-08T02:17:36;20.40;97.60
13211;DHT22;6670;51.53087800;7.23266500;2023-09-08T02:20:04;20.50;14.50
13211;DHT22;6670;51.53087800;7.23266500;2023-09-08T02:22:32;20.50;1.00
13211;DHT22;6670;51.53087800;7.23266500;2023-09-08T02:24:59;20.50;1.00
13211;DHT22;6670;51.53087800;7.23266500;2023-09-08T02:27:27;20.50;65.90
13211;DHT22;6670;51.53087800;7.23266500;2023-09-08T02:29:55;20.30;99.90
13211;DHT22;6670;51.53087800;7.23266500;2023-09-08T02:32:23;20.30;99.90
13211;DHT22;6670;51.53087800;7.23266500;2023-09-08T02:34:52;20.20;99.90
13211;DHT22;6670;51.53087800;7.23266500;2023-09-08T02:37:19;20.10;1.00
13211;DHT22;6670;51.53087800;7.23266500;2023-09-08T02:39:47;20.10;1.00
13211;DHT22;6670;51.53087800;7.23266500;2023-09-08T02:42:14;20.10;99.90
13211;DHT22;6670;51.53087800;7.23266500;2023-09-08T02:44:42;20.10;99.90
13211;DHT22;6670;51.53087800;7.23266500;2023-09-08T02:47:11;20.00;1.00
13211;DHT22;6670;51.53087800;7.23266500;2023-09-08T02:49:41;20.00;1.00
13211;DHT22;6670;51.53087800;7.23266500;2023-09-08T02:52:11;19.90;1.00
13211;DHT22;6670;51.53087800;7.23266500;2023-09-08T02:54:38;19.90;1.00
13211;DHT22;6670;51.53087800;7.23266500;2023-09-08T02:57:06;19.80;99.90
13211;DHT22;6670;51.53087800;7.23266500;2023-09-08T02:59:34;19.80;1.00
13211;DHT22;6670;51.53087800;7.23266500;2023-09-08T03:02:01;19.70;99.90
13211;DHT22;6670;51.53087800;7.23266500;2023-09-08T03:04:29;19.60;99.90
13211;DHT22;6670;51.53087800;7.23266500;2023-09-08T03:06:57;19.60;1.00
13211;DHT22;6670;51.53087800;7.23266500;2023-09-08T03:09:26;19.60;1.00
13211;DHT22;6670;51.53087800;7.23266500;2023-09-08T03:11:54;19.80;1.00
13211;DHT22;6670;51.53087800;7.23266500;2023-09-08T03:14:21;19.90;1.00
13211;DHT22;6670;51.53087800;7.23266500;2023-09-08T03:16:49;19.90;1.00
13211;DHT22;6670;51.53087800;7.23266500;2023-09-08T03:19:16;19.90;1.00
13211;DHT22;6670;51.53087800;7.23266500;2023-09-08T03:21:44;19.90;1.00
13211;DHT22;6670;51.53087800;7.23266500;2023-09-08T03:24:12;20.00;99.90
13211;DHT22;6670;51.53087800;7.23266500;2023-09-08T03:26:40;20.10;99.90
13211;DHT22;6670;51.53087800;7.23266500;2023-09-08T03:29:08;20.00;99.90
13211;DHT22;6670;51.53087800;7.23266500;2023-09-08T03:31:35;19.80;99.90
13211;DHT22;6670;51.53087800;7.23266500;2023-09-08T03:34:03;19.70;1.00
13211;DHT22;6670;51.53087800;7.23266500;2023-09-08T03:36:30;19.70;99.90
13211;DHT22;6670;51.53087800;7.23266500;2023-09-08T03:39:02;19.50;99.90
13211;DHT22;6670;51.53087800;7.23266500;2023-09-08T03:41:29;19.50;99.90
13211;DHT22;6670;51.53087800;7.23266500;2023-09-08T03:43:58;19.40;22.90
13211;DHT22;6670;51.53087800;7.23266500;2023-09-08T03:46:26;19.30;93.80
13211;DHT22;6670;51.53087800;7.23266500;2023-09-08T03:48:53;19.30;99.90
13211;DHT22;6670;51.53087800;7.23266500;2023-09-08T03:51:26;19.30;99.90
13211;DHT22;6670;51.53087800;7.23266500;2023-09-08T03:53:55;19.30;99.90
13211;DHT22;6670;51.53087800;7.23266500;2023-09-08T03:56:23;19.20;1.00
13211;DHT22;6670;51.53087800;7.23266500;2023-09-08T03:58:50;19.20;99.90
13211;DHT22;6670;51.53087800;7.23266500;2023-09-08T04:01:19;19.10;99.90
13211;DHT22;6670;51.53087800;7.23266500;2023-09-08T04:03:46;19.00;99.90
13211;DHT22;6670;51.53087800;7.23266500;2023-09-08T04:06:15;19.10;1.00
13211;DHT22;6670;51.53087800;7.23266500;2023-09-08T04:08:42;19.30;1.00
13211;DHT22;6670;51.53087800;7.23266500;2023-09-08T04:11:10;19.70;1.00
13211;DHT22;6670;51.53087800;7.23266500;2023-09-08T04:13:37;19.80;99.90
13211;DHT22;6670;51.53087800;7.23266500;2023-09-08T04:16:05;19.90;99.90
13211;DHT22;6670;51.53087800;7.23266500;2023-09-08T04:18:34;20.00;81.00
13211;DHT22;6670;51.53087800;7.23266500;2023-09-08T04:21:02;19.90;1.00
13211;DHT22;6670;51.53087800;7.23266500;2023-09-08T04:23:29;20.00;97.40
13211;DHT22;6670;51.53087800;7.23266500;2023-09-08T04:25:57;20.20;1.00
13211;DHT22;6670;51.53087800;7.23266500;2023-09-08T04:28:24;20.20;1.00
13211;DHT22;6670;51.53087800;7.23266500;2023-09-08T04:30:51;20.20;1.00
13211;DHT22;6670;51.53087800;7.23266500;2023-09-08T04:33:19;20.20;1.00
13211;DHT22;6670;51.53087800;7.23266500;2023-09-08T04:35:48;20.10;1.00
13211;DHT22;6670;51.53087800;7.23266500;2023-09-08T04:38:15;20.00;1.00
13211;DHT22;6670;51.53087800;7.23266500;2023-09-08T04:40:45;20.10;37.20
13211;DHT22;6670;51.53087800;7.23266500;2023-09-08T04:43:12;20.10;9.80
13211;DHT22;6670;51.53087800;7.23266500;2023-09-08T04:45:40;20.10;2.50
13211;DHT22;6670;51.53087800;7.23266500;2023-09-08T04:48:09;20.10;1.00
13211;DHT22;6670;51.53087800;7.23266500;2023-09-08T04:50:39;20.10;27.70
13211;DHT22;6670;51.53087800;7.23266500;2023-09-08T04:53:07;20.10;1.00
13211;DHT22;6670;51.53087800;7.23266500;2023-09-08T04:55:35;20.10;1.00
13211;DHT22;6670;51.53087800;7.23266500;2023-09-08T04:58:04;20.20;1.00
13211;DHT22;6670;51.53087800;7.23266500;2023-09-08T05:00:32;20.10;1.00
13211;DHT22;6670;51.53087800;7.23266500;2023-09-08T05:03:00;20.10;1.00
13211;DHT22;6670;51.53087800;7.23266500;2023-09-08T05:05:27;20.00;1.00
13211;DHT22;6670;51.53087800;7.23266500;2023-09-08T05:07:54;20.00;1.00
13211;DHT22;6670;51.53087800;7.23266500;2023-09-08T05:10:24;20.10;1.00
13211;DHT22;6670;51.53087800;7.23266500;2023-09-08T05:12:52;20.10;1.00
13211;DHT22;6670;51.53087800;7.23266500;2023-09-08T05:15:20;20.10;1.00
13211;DHT22;6670;51.53087800;7.23266500;2023-09-08T05:17:51;20.10;1.00
13211;DHT22;6670;51.53087800;7.23266500;2023-09-08T05:20:20;20.00;1.00
13211;DHT22;6670;51.53087800;7.23266500;2023-09-08T05:22:48;20.10;1.00
13211;DHT22;6670;51.53087800;7.23266500;2023-09-08T05:25:15;20.00;1.00
13211;DHT22;6670;51.53087800;7.23266500;2023-09-08T05:27:44;20.10;1.00
13211;DHT22;6670;51.53087800;7.23266500;2023-09-08T05:30:13;19.90;1.00
13211;DHT22;6670;51.53087800;7.23266500;2023-09-08T05:32:41;19.90;1.00
13211;DHT22;6670;51.53087800;7.23266500;2023-09-08T05:35:09;19.80;1.00
13211;DHT22;6670;51.53087800;7.23266500;2023-09-08T05:37:36;19.70;1.00
13211;DHT22;6670;51.53087800;7.23266500;2023-09-08T05:40:05;19.80;1.00
13211;DHT22;6670;51.53087800;7.23266500;2023-09-08T05:42:33;20.00;1.00
13211;DHT22;6670;51.53087800;7.23266500;2023-09-08T05:45:02;20.10;1.00
13211;DHT22;6670;51.53087800;7.23266500;2023-09-08T05:47:30;20.20;1.00
13211;DHT22;6670;51.53087800;7.23266500;2023-09-08T05:49:57;20.10;1.00
13211;DHT22;6670;51.53087800;7.23266500;2023-09-08T05:52:25;20.10;1.00
13211;DHT22;6670;51.53087800;7.23266500;2023-09-08T05:54:54;20.20;1.00
13211;DHT22;6670;51.53087800;7.23266500;2023-09-08T05:57:22;20.40;1.00
13211;DHT22;6670;51.53087800;7.23266500;2023-09-08T05:59:49;20.40;99.90
13211;DHT22;6670;51.53087800;7.23266500;2023-09-08T06:02:18;20.50;99.90
13211;DHT22;6670;51.53087800;7.23266500;2023-09-08T06:04:46;20.60;99.90
13211;DHT22;6670;51.53087800;7.23266500;2023-09-08T06:07:13;20.60;1.00
13211;DHT22;6670;51.53087800;7.23266500;2023-09-08T06:09:41;20.60;1.00
13211;DHT22;6670;51.53087800;7.23266500;2023-09-08T06:12:09;20.60;1.00
13211;DHT22;6670;51.53087800;7.23266500;2023-09-08T06:14:37;20.60;99.90
13211;DHT22;6670;51.53087800;7.23266500;2023-09-08T06:17:05;20.60;99.90
13211;DHT22;6670;51.53087800;7.23266500;2023-09-08T06:19:33;20.70;99.90
13211;DHT22;6670;51.53087800;7.23266500;2023-09-08T06:22:01;20.70;99.90
13211;DHT22;6670;51.53087800;7.23266500;2023-09-08T06:24:29;20.70;99.90
13211;DHT22;6670;51.53087800;7.23266500;2023-09-08T06:26:57;20.80;99.90
13211;DHT22;6670;51.53087800;7.23266500;2023-09-08T06:29:24;20.90;99.90
13211;DHT22;6670;51.53087800;7.23266500;2023-09-08T06:31:52;21.10;99.90
13211;DHT22;6670;51.53087800;7.23266500;2023-09-08T06:34:19;21.30;51.10
13211;DHT22;6670;51.53087800;7.23266500;2023-09-08T06:36:50;21.40;1.00
13211;DHT22;6670;51.53087800;7.23266500;2023-09-08T06:39:18;21.40;33.20
13211;DHT22;6670;51.53087800;7.23266500;2023-09-08T06:41:45;21.40;1.00
13211;DHT22;6670;51.53087800;7.23266500;2023-09-08T06:44:15;21.40;1.00
13211;DHT22;6670;51.53087800;7.23266500;2023-09-08T06:46:42;21.50;74.20
13211;DHT22;6670;51.53087800;7.23266500;2023-09-08T06:49:10;21.70;1.00
13211;DHT22;6670;51.53087800;7.23266500;2023-09-08T06:51:38;21.80;1.00
13211;DHT22;6670;51.53087800;7.23266500;2023-09-08T06:54:07;21.70;1.00
13211;DHT22;6670;51.53087800;7.23266500;2023-09-08T06:56:38;21.80;1.00
13211;DHT22;6670;51.53087800;7.23266500;2023-09-08T06:59:07;22.00;1.00
13211;DHT22;6670;51.53087800;7.23266500;2023-09-08T07:01:35;22.10;1.00
13211;DHT22;6670;51.53087800;7.23266500;2023-09-08T07:04:03;22.20;1.00
13211;DHT22;6670;51.53087800;7.23266500;2023-09-08T07:06:32;22.10;1.00
13211;DHT22;6670;51.53087800;7.23266500;2023-09-08T07:09:00;22.20;1.00
13211;DHT22;6670;51.53087800;7.23266500;2023-09-08T07:11:30;22.20;1.00
13211;DHT22;6670;51.53087800;7.23266500;2023-09-08T07:13:58;22.20;1.00
13211;DHT22;6670;51.53087800;7.23266500;2023-09-08T07:16:25;22.30;1.00
13211;DHT22;6670;51.53087800;7.23266500;2023-09-08T07:18:53;22.20;1.00
13211;DHT22;6670;51.53087800;7.23266500;2023-09-08T07:21:20;22.30;1.00
13211;DHT22;6670;51.53087800;7.23266500;2023-09-08T07:23:48;22.40;1.00
13211;DHT22;6670;51.53087800;7.23266500;2023-09-08T07:26:16;22.40;1.00
13211;DHT22;6670;51.53087800;7.23266500;2023-09-08T07:28:45;22.50;1.00
13211;DHT22;6670;51.53087800;7.23266500;2023-09-08T07:31:15;22.60;1.00
13211;DHT22;6670;51.53087800;7.23266500;2023-09-08T07:33:45;22.60;1.00
13211;DHT22;6670;51.53087800;7.23266500;2023-09-08T07:36:13;22.70;1.00
13211;DHT22;6670;51.53087800;7.23266500;2023-09-08T07:38:42;22.70;1.00
13211;DHT22;6670;51.53087800;7.23266500;2023-09-08T07:41:11;22.90;1.00
13211;DHT22;6670;51.53087800;7.23266500;2023-09-08T07:43:39;22.90;99.90
13211;DHT22;6670;51.53087800;7.23266500;2023-09-08T07:46:10;23.00;1.00
13211;DHT22;6670;51.53087800;7.23266500;2023-09-08T07:48:38;23.10;99.90
13211;DHT22;6670;51.53087800;7.23266500;2023-09-08T07:51:05;23.20;99.90
13211;DHT22;6670;51.53087800;7.23266500;2023-09-08T07:53:33;23.20;1.00
13211;DHT22;6670;51.53087800;7.23266500;2023-09-08T07:56:00;23.30;99.90
13211;DHT22;6670;51.53087800;7.23266500;2023-09-08T07:58:28;23.30;99.90
13211;DHT22;6670;51.53087800;7.23266500;2023-09-08T08:00:55;23.40;99.90
13211;DHT22;6670;51.53087800;7.23266500;2023-09-08T08:03:24;23.50;99.90
13211;DHT22;6670;51.53087800;7.23266500;2023-09-08T08:05:51;23.60;99.90
13211;DHT22;6670;51.53087800;7.23266500;2023-09-08T08:08:19;23.60;99.90
13211;DHT22;6670;51.53087800;7.23266500;2023-09-08T08:10:46;23.70;99.90
13211;DHT22;6670;51.53087800;7.23266500;2023-09-08T08:13:14;23.80;99.90
13211;DHT22;6670;51.53087800;7.23266500;2023-09-08T08:15:41;23.90;99.90
13211;DHT22;6670;51.53087800;7.23266500;2023-09-08T08:18:09;23.90;99.90
13211;DHT22;6670;51.53087800;7.23266500;2023-09-08T08:20:38;24.00;99.90
13211;DHT22;6670;51.53087800;7.23266500;2023-09-08T08:23:06;24.00;99.90
13211;DHT22;6670;51.53087800;7.23266500;2023-09-08T08:25:34;24.10;99.90
13211;DHT22;6670;51.53087800;7.23266500;2023-09-08T08:28:02;24.10;99.90
13211;DHT22;6670;51.53087800;7.23266500;2023-09-08T08:30:29;24.10;1.00
13211;DHT22;6670;51.53087800;7.23266500;2023-09-08T08:32:58;24.10;1.00
13211;DHT22;6670;51.53087800;7.23266500;2023-09-08T08:35:26;24.10;99.90
13211;DHT22;6670;51.53087800;7.23266500;2023-09-08T08:37:54;24.10;99.90
13211;DHT22;6670;51.53087800;7.23266500;2023-09-08T08:40:22;24.30;99.90
13211;DHT22;6670;51.53087800;7.23266500;2023-09-08T08:42:55;24.40;99.90
13211;DHT22;6670;51.53087800;7.23266500;2023-09-08T08:45:23;24.40;99.90
13211;DHT22;6670;51.53087800;7.23266500;2023-09-08T08:47:52;24.50;99.90
13211;DHT22;6670;51.53087800;7.23266500;2023-09-08T08:50:20;24.70;99.90
13211;DHT22;6670;51.53087800;7.23266500;2023-09-08T08:52:48;24.50;99.90
13211;DHT22;6670;51.53087800;7.23266500;2023-09-08T08:55:17;24.60;99.90
13211;DHT22;6670;51.53087800;7.23266500;2023-09-08T08:57:45;24.70;99.90
13211;DHT22;6670;51.53087800;7.23266500;2023-09-08T09:00:16;24.70;1.00
13211;DHT22;6670;51.53087800;7.23266500;2023-09-08T09:02:45;24.90;99.90
13211;DHT22;6670;51.53087800;7.23266500;2023-09-08T09:05:15;25.00;99.90
13211;DHT22;6670;51.53087800;7.23266500;2023-09-08T09:07:43;25.00;99.90
13211;DHT22;6670;51.53087800;7.23266500;2023-09-08T09:10:10;25.10;99.90
13211;DHT22;6670;51.53087800;7.23266500;2023-09-08T09:12:40;25.20;1.00
13211;DHT22;6670;51.53087800;7.23266500;2023-09-08T09:15:08;25.30;99.90
13211;DHT22;6670;51.53087800;7.23266500;2023-09-08T09:17:36;25.20;99.90
13211;DHT22;6670;51.53087800;7.23266500;2023-09-08T09:20:12;25.20;99.90
13211;DHT22;6670;51.53087800;7.23266500;2023-09-08T09:22:47;25.30;99.90
13211;DHT22;6670;51.53087800;7.23266500;2023-09-08T09:25:23;25.20;99.90
13211;DHT22;6670;51.53087800;7.23266500;2023-09-08T09:27:53;25.30;99.90
13211;DHT22;6670;51.53087800;7.23266500;2023-09-08T09:30:21;25.30;99.90
13211;DHT22;6670;51.53087800;7.23266500;2023-09-08T09:32:59;25.50;99.90
13211;DHT22;6670;51.53087800;7.23266500;2023-09-08T09:35:40;25.60;99.90
13211;DHT22;6670;51.53087800;7.23266500;2023-09-08T09:38:07;25.70;99.90
13211;DHT22;6670;51.53087800;7.23266500;2023-09-08T09:40:35;25.80;99.90
13211;DHT22;6670;51.53087800;7.23266500;2023-09-08T09:43:05;26.00;99.90
13211;DHT22;6670;51.53087800;7.23266500;2023-09-08T09:45:34;26.00;99.90
13211;DHT22;6670;51.53087800;7.23266500;2023-09-08T09:48:03;26.00;99.90
13211;DHT22;6670;51.53087800;7.23266500;2023-09-08T09:50:32;26.20;99.90
13211;DHT22;6670;51.53087800;7.23266500;2023-09-08T09:53:01;26.20;99.90
13211;DHT22;6670;51.53087800;7.23266500;2023-09-08T09:55:29;26.40;99.90
13211;DHT22;6670;51.53087800;7.23266500;2023-09-08T09:57:58;26.40;99.90
13211;DHT22;6670;51.53087800;7.23266500;2023-09-08T10:00:27;26.50;99.90
13211;DHT22;6670;51.53087800;7.23266500;2023-09-08T10:02:56;26.60;99.90
13211;DHT22;6670;51.53087800;7.23266500;2023-09-08T10:05:24;26.70;99.90
13211;DHT22;6670;51.53087800;7.23266500;2023-09-08T10:07:52;26.80;99.90
13211;DHT22;6670;51.53087800;7.23266500;2023-09-08T10:10:27;26.90;99.90
13211;DHT22;6670;51.53087800;7.23266500;2023-09-08T10:12:57;26.90;99.90
13211;DHT22;6670;51.53087800;7.23266500;2023-09-08T10:15:24;27.00;1.00
13211;DHT22;6670;51.53087800;7.23266500;2023-09-08T10:17:55;27.10;1.00
13211;DHT22;6670;51.53087800;7.23266500;2023-09-08T10:20:23;27.10;1.00
13211;DHT22;6670;51.53087800;7.23266500;2023-09-08T10:22:54;27.20;1.00
13211;DHT22;6670;51.53087800;7.23266500;2023-09-08T10:25:24;27.30;99.90
13211;DHT22;6670;51.53087800;7.23266500;2023-09-08T10:27:53;27.50;99.90
13211;DHT22;6670;51.53087800;7.23266500;2023-09-08T10:30:20;27.60;1.00
13211;DHT22;6670;51.53087800;7.23266500;2023-09-08T10:32:49;27.50;99.90
13211;DHT22;6670;51.53087800;7.23266500;2023-09-08T10:35:19;27.60;99.90
13211;DHT22;6670;51.53087800;7.23266500;2023-09-08T10:37:46;27.60;1.00
13211;DHT22;6670;51.53087800;7.23266500;2023-09-08T10:40:21;27.70;1.00
13211;DHT22;6670;51.53087800;7.23266500;2023-09-08T10:42:49;27.90;1.00
13211;DHT22;6670;51.53087800;7.23266500;2023-09-08T10:45:32;27.80;1.00
13211;DHT22;6670;51.53087800;7.23266500;2023-09-08T10:47:59;27.70;1.00
13211;DHT22;6670;51.53087800;7.23266500;2023-09-08T10:50:30;27.80;1.00
13211;DHT22;6670;51.53087800;7.23266500;2023-09-08T10:53:07;28.00;1.00
13211;DHT22;6670;51.53087800;7.23266500;2023-09-08T10:55:41;28.10;1.00
13211;DHT22;6670;51.53087800;7.23266500;2023-09-08T10:58:20;28.20;1.00
13211;DHT22;6670;51.53087800;7.23266500;2023-09-08T11:00:51;28.20;1.00
13211;DHT22;6670;51.53087800;7.23266500;2023-09-08T11:03:42;28.40;1.00
13211;DHT22;6670;51.53087800;7.23266500;2023-09-08T11:06:12;28.50;99.90
13211;DHT22;6670;51.53087800;7.23266500;2023-09-08T11:08:42;28.50;99.90
13211;DHT22;6670;51.53087800;7.23266500;2023-09-08T11:11:10;28.40;1.00
13211;DHT22;6670;51.53087800;7.23266500;2023-09-08T11:13:41;28.40;1.00
13211;DHT22;6670;51.53087800;7.23266500;2023-09-08T11:16:12;28.60;99.90
13211;DHT22;6670;51.53087800;7.23266500;2023-09-08T11:18:40;28.70;99.90
13211;DHT22;6670;51.53087800;7.23266500;2023-09-08T11:21:09;28.70;1.00
13211;DHT22;6670;51.53087800;7.23266500;2023-09-08T11:23:38;28.70;1.00
13211;DHT22;6670;51.53087800;7.23266500;2023-09-08T11:26:06;28.80;1.00
13211;DHT22;6670;51.53087800;7.23266500;2023-09-08T11:28:35;28.90;49.20
13211;DHT22;6670;51.53087800;7.23266500;2023-09-08T11:31:03;28.90;99.90
13211;DHT22;6670;51.53087800;7.23266500;2023-09-08T11:33:36;29.10;99.90
13211;DHT22;6670;51.53087800;7.23266500;2023-09-08T11:36:12;29.10;1.00
13211;DHT22;6670;51.53087800;7.23266500;2023-09-08T11:38:43;29.10;1.00
13211;DHT22;6670;51.53087800;7.23266500;2023-09-08T11:41:11;29.10;1.00
13211;DHT22;6670;51.53087800;7.23266500;2023-09-08T11:43:39;29.30;99.90
13211;DHT22;6670;51.53087800;7.23266500;2023-09-08T11:46:07;29.30;95.70
13211;DHT22;6670;51.53087800;7.23266500;2023-09-08T11:48:37;29.40;1.00
13211;DHT22;6670;51.53087800;7.23266500;2023-09-08T11:51:06;29.50;99.90
13211;DHT22;6670;51.53087800;7.23266500;2023-09-08T11:53:37;29.60;99.90
13211;DHT22;6670;51.53087800;7.23266500;2023-09-08T11:56:07;29.60;91.60
13211;DHT22;6670;51.53087800;7.23266500;2023-09-08T11:58:37;29.70;1.00
13211;DHT22;6670;51.53087800;7.23266500;2023-09-08T12:01:10;29.80;26.40
13211;DHT22;6670;51.53087800;7.23266500;2023-09-08T12:03:51;29.90;1.00
13211;DHT22;6670;51.53087800;7.23266500;2023-09-08T12:06:19;30.00;1.00
13211;DHT22;6670;51.53087800;7.23266500;2023-09-08T12:08:46;30.10;1.00
13211;DHT22;6670;51.53087800;7.23266500;2023-09-08T12:11:15;30.30;99.90
13211;DHT22;6670;51.53087800;7.23266500;2023-09-08T12:13:43;30.50;10.20
13211;DHT22;6670;51.53087800;7.23266500;2023-09-08T12:16:20;30.40;1.00
13211;DHT22;6670;51.53087800;7.23266500;2023-09-08T12:18:49;30.80;99.90
13211;DHT22;6670;51.53087800;7.23266500;2023-09-08T12:21:19;30.80;1.00
13211;DHT22;6670;51.53087800;7.23266500;2023-09-08T12:23:51;30.70;1.00
13211;DHT22;6670;51.53087800;7.23266500;2023-09-08T12:26:20;30.60;1.00
13211;DHT22;6670;51.53087800;7.23266500;2023-09-08T12:28:48;30.60;1.00
13211;DHT22;6670;51.53087800;7.23266500;2023-09-08T12:31:17;30.60;1.00
13211;DHT22;6670;51.53087800;7.23266500;2023-09-08T12:33:45;30.80;99.90
13211;DHT22;6670;51.53087800;7.23266500;2023-09-08T12:36:17;31.10;1.00
13211;DHT22;6670;51.53087800;7.23266500;2023-09-08T12:38:47;31.40;99.90
13211;DHT22;6670;51.53087800;7.23266500;2023-09-08T12:41:15;31.40;99.90
13211;DHT22;6670;51.53087800;7.23266500;2023-09-08T12:43:49;31.40;1.00
13211;DHT22;6670;51.53087800;7.23266500;2023-09-08T12:46:17;31.10;1.00
13211;DHT22;6670;51.53087800;7.23266500;2023-09-08T12:48:45;31.50;1.00
13211;DHT22;6670;51.53087800;7.23266500;2023-09-08T12:51:12;31.50;1.00
13211;DHT22;6670;51.53087800;7.23266500;2023-09-08T12:53:39;31.40;1.00
13211;DHT22;6670;51.53087800;7.23266500;2023-09-08T12:56:07;31.30;1.00
13211;DHT22;6670;51.53087800;7.23266500;2023-09-08T12:58:34;31.70;1.00
13211;DHT22;6670;51.53087800;7.23266500;2023-09-08T13:01:03;31.70;99.90
13211;DHT22;6670;51.53087800;7.23266500;2023-09-08T13:03:32;31.90;99.90
13211;DHT22;6670;51.53087800;7.23266500;2023-09-08T13:06:02;31.80;99.90
13211;DHT22;6670;51.53087800;7.23266500;2023-09-08T13:08:30;32.00;99.90
13211;DHT22;6670;51.53087800;7.23266500;2023-09-08T13:10:57;32.20;1.00
13211;DHT22;6670;51.53087800;7.23266500;2023-09-08T13:13:24;32.20;1.00
13211;DHT22;6670;51.53087800;7.23266500;2023-09-08T13:15:54;32.50;99.90
13211;DHT22;6670;51.53087800;7.23266500;2023-09-08T13:18:23;32.60;1.00
13211;DHT22;6670;51.53087800;7.23266500;2023-09-08T13:20:50;32.30;1.00
13211;DHT22;6670;51.53087800;7.23266500;2023-09-08T13:23:20;32.20;1.00
13211;DHT22;6670;51.53087800;7.23266500;2023-09-08T13:25:48;32.30;1.00
13211;DHT22;6670;51.53087800;7.23266500;2023-09-08T13:28:15;32.10;1.00
13211;DHT22;6670;51.53087800;7.23266500;2023-09-08T13:30:42;32.50;99.90
13211;DHT22;6670;51.53087800;7.23266500;2023-09-08T13:33:13;32.50;1.00
13211;DHT22;6670;51.53087800;7.23266500;2023-09-08T13:35:42;32.20;20.20
13211;DHT22;6670;51.53087800;7.23266500;2023-09-08T13:38:09;32.30;99.90
13211;DHT22;6670;51.53087800;7.23266500;2023-09-08T13:40:39;32.50;1.00
13211;DHT22;6670;51.53087800;7.23266500;2023-09-08T13:43:08;32.70;94.80
13211;DHT22;6670;51.53087800;7.23266500;2023-09-08T13:45:37;33.00;1.00
13211;DHT22;6670;51.53087800;7.23266500;2023-09-08T13:48:05;33.10;1.00